createdAt,value
2022-11-27T00:01:37.582Z,14.93
2022-11-27T00:04:07.110Z,16.63
2022-11-27T00:06:37.154Z,14.40
2022-11-27T00:09:09.471Z,13.37
2022-11-27T00:11:39.508Z,14.13
2022-11-27T00:14:08.618Z,14.37
2022-11-27T00:16:37.250Z,14.17
2022-11-27T00:19:06.220Z,15.00
2022-11-27T00:21:36.632Z,14.50
2022-11-27T00:24:08.533Z,15.67
2022-11-27T00:26:38.439Z,16.07
2022-11-27T00:29:07.855Z,16.87
2022-11-27T00:31:37.889Z,15.73
2022-11-27T00:34:09.280Z,15.60
2022-11-27T00:36:38.505Z,16.20
2022-11-27T00:39:08.973Z,16.30
2022-11-27T00:41:37.866Z,15.50
2022-11-27T00:44:06.967Z,13.90
2022-11-27T00:46:36.872Z,16.17
2022-11-27T00:49:08.090Z,14.40
2022-11-27T00:51:37.316Z,15.87
2022-11-27T00:54:08.815Z,15.40
2022-11-27T00:56:44.887Z,13.37
2022-11-27T00:59:25.311Z,14.27
2022-11-27T01:02:05.232Z,14.67
2022-11-27T01:04:42.012Z,13.00
2022-11-27T01:07:17.109Z,13.73
2022-11-27T01:10:00.608Z,14.43
2022-11-27T01:12:34.519Z,14.00
2022-11-27T01:15:06.342Z,14.20
2022-11-27T01:17:43.692Z,13.53
2022-11-27T01:20:15.960Z,14.40
2022-11-27T01:22:57.719Z,13.33
2022-11-27T01:25:32.377Z,11.80
2022-11-27T01:28:13.011Z,13.50
2022-11-27T01:30:48.288Z,14.03
2022-11-27T01:33:23.358Z,15.80
2022-11-27T01:36:09.900Z,14.77
2022-11-27T01:38:41.086Z,14.30
2022-11-27T01:41:26.635Z,14.20
2022-11-27T01:44:02.686Z,13.30
2022-11-27T01:46:44.169Z,12.07
2022-11-27T01:49:27.999Z,12.43
2022-11-27T01:52:04.104Z,13.40
2022-11-27T01:54:39.188Z,13.47
2022-11-27T01:57:26.812Z,13.57
2022-11-27T02:00:02.702Z,14.30
2022-11-27T02:02:39.590Z,14.50
2022-11-27T02:05:17.896Z,12.83
2022-11-27T02:07:58.774Z,13.83
2022-11-27T02:10:43.787Z,13.40
2022-11-27T02:13:21.283Z,13.70
2022-11-27T02:16:19.426Z,12.53
2022-11-27T02:19:04.062Z,13.17
2022-11-27T02:21:45.047Z,11.53
2022-11-27T02:24:45.206Z,12.07
2022-11-27T02:27:44.719Z,11.50
2022-11-27T02:30:21.335Z,12.57
2022-11-27T02:32:56.711Z,12.57
2022-11-27T02:35:33.791Z,12.87
2022-11-27T02:38:08.465Z,12.90
2022-11-27T02:40:42.103Z,11.67
2022-11-27T02:43:13.915Z,13.57
2022-11-27T02:45:57.265Z,11.70
2022-11-27T02:48:35.002Z,13.73
2022-11-27T02:51:11.337Z,13.57
2022-11-27T02:53:44.515Z,12.70
2022-11-27T02:56:17.871Z,12.80
2022-11-27T02:58:49.385Z,12.10
2022-11-27T03:01:22.463Z,13.03
2022-11-27T03:03:54.422Z,12.27
2022-11-27T03:06:31.448Z,11.70
2022-11-27T03:09:06.679Z,11.17
2022-11-27T03:11:35.628Z,11.13
2022-11-27T03:14:09.309Z,11.90
2022-11-27T03:16:49.507Z,12.77
2022-11-27T03:19:21.990Z,11.00
2022-11-27T03:21:54.015Z,10.70
2022-11-27T03:24:24.913Z,10.03
2022-11-27T03:26:54.371Z,10.50
2022-11-27T03:29:26.949Z,10.90
2022-11-27T03:31:58.142Z,10.10
2022-11-27T03:34:31.753Z,8.63
2022-11-27T03:37:12.241Z,9.33
2022-11-27T03:39:42.923Z,10.23
2022-11-27T03:42:21.166Z,9.57
2022-11-27T03:45:02.789Z,9.40
2022-11-27T03:47:49.333Z,10.60
2022-11-27T03:50:26.185Z,10.30
2022-11-27T03:53:08.245Z,10.00
2022-11-27T03:55:51.075Z,8.97
2022-11-27T03:58:32.873Z,10.03
2022-11-27T04:01:07.400Z,8.10
2022-11-27T04:03:38.070Z,9.13
2022-11-27T04:06:07.738Z,10.97
2022-11-27T04:08:52.882Z,10.33
2022-11-27T04:11:24.772Z,9.33
2022-11-27T04:13:53.587Z,9.33
2022-11-27T04:16:22.573Z,8.80
2022-11-27T04:18:55.922Z,9.00
2022-11-27T04:21:24.814Z,9.63
2022-11-27T04:23:53.773Z,10.23
2022-11-27T04:26:23.618Z,8.93
2022-11-27T04:28:52.323Z,9.10
2022-11-27T04:31:21.023Z,9.57
2022-11-27T04:33:51.026Z,9.60
2022-11-27T04:36:19.681Z,10.47
2022-11-27T04:38:48.449Z,8.70
2022-11-27T04:41:17.246Z,9.57
2022-11-27T04:43:45.868Z,10.97
2022-11-27T04:46:14.750Z,9.03
2022-11-27T04:48:43.449Z,10.43
2022-11-27T04:51:13.583Z,9.17
2022-11-27T04:53:42.310Z,9.87
2022-11-27T04:56:11.013Z,8.90
2022-11-27T04:58:39.649Z,7.70
2022-11-27T05:01:10.119Z,9.43
2022-11-27T05:03:38.957Z,8.87
2022-11-27T05:06:07.866Z,11.73
2022-11-27T05:08:38.006Z,13.77
2022-11-27T05:11:09.555Z,10.43
2022-11-27T05:13:38.471Z,8.70
2022-11-27T05:16:08.477Z,8.77
2022-11-27T05:18:37.569Z,8.50
2022-11-27T05:21:08.212Z,7.77
2022-11-27T05:23:38.698Z,9.73
2022-11-27T05:26:07.594Z,7.27
2022-11-27T05:28:36.376Z,10.27
2022-11-27T05:31:05.199Z,7.80
2022-11-27T05:33:33.890Z,8.33
2022-11-27T05:36:02.537Z,8.80
2022-11-27T05:38:31.415Z,8.80
2022-11-27T05:41:01.683Z,9.80
2022-11-27T05:43:30.470Z,10.27
2022-11-27T05:45:59.465Z,9.50
2022-11-27T05:48:28.194Z,9.17
2022-11-27T05:50:57.345Z,8.93
2022-11-27T05:53:26.125Z,10.00
2022-11-27T05:55:55.026Z,9.20
2022-11-27T05:58:25.249Z,9.73
2022-11-27T06:00:54.509Z,9.77
2022-11-27T06:03:23.334Z,9.57
2022-11-27T06:05:52.151Z,8.97
2022-11-27T06:08:20.857Z,11.37
2022-11-27T06:10:50.166Z,10.63
2022-11-27T06:13:19.113Z,9.90
2022-11-27T06:15:49.398Z,10.33
2022-11-27T06:18:18.301Z,9.93
2022-11-27T06:20:52.737Z,9.70
2022-11-27T06:23:22.570Z,11.53
2022-11-27T06:25:51.399Z,15.93
2022-11-27T06:28:20.313Z,13.40
2022-11-27T06:30:50.508Z,13.73
2022-11-27T06:33:19.117Z,12.30
2022-11-27T06:35:47.721Z,10.37
2022-11-27T06:38:16.306Z,11.47
2022-11-27T06:40:45.065Z,11.30
2022-11-27T06:43:13.888Z,12.13
2022-11-27T06:45:42.566Z,13.30
2022-11-27T06:48:12.885Z,13.63
2022-11-27T06:50:41.672Z,13.07
2022-11-27T06:53:10.345Z,12.50
2022-11-27T06:55:39.987Z,13.70
2022-11-27T06:58:08.595Z,14.17
2022-11-27T07:00:37.415Z,15.67
2022-11-27T07:03:06.051Z,16.33
2022-11-27T07:05:36.864Z,16.77
2022-11-27T07:08:06.016Z,16.33
2022-11-27T07:10:36.063Z,16.17
2022-11-27T07:13:04.751Z,14.83
2022-11-27T07:15:34.699Z,11.83
2022-11-27T07:18:03.435Z,27.40
2022-11-27T07:20:32.047Z,53.97
2022-11-27T07:23:02.042Z,31.50
2022-11-27T07:25:30.820Z,20.73
2022-11-27T07:27:59.417Z,14.03
2022-11-27T07:30:28.233Z,16.07
2022-11-27T07:32:57.110Z,17.00
2022-11-27T07:35:25.908Z,17.20
2022-11-27T07:37:54.557Z,15.50
2022-11-27T07:40:24.721Z,15.70
2022-11-27T07:42:53.376Z,17.27
2022-11-27T07:45:22.041Z,18.10
2022-11-27T07:47:50.655Z,21.47
2022-11-27T07:50:19.266Z,23.00
2022-11-27T07:52:48.051Z,20.80
2022-11-27T07:55:16.702Z,27.33
2022-11-27T07:57:46.748Z,35.80
2022-11-27T08:00:16.317Z,34.90
2022-11-27T08:02:45.064Z,32.50
2022-11-27T08:05:13.863Z,32.57
2022-11-27T08:07:42.559Z,21.30
2022-11-27T08:10:11.476Z,21.83
2022-11-27T08:12:40.210Z,18.67
2022-11-27T08:15:11.908Z,18.67
2022-11-27T08:17:41.269Z,16.57
2022-11-27T08:20:10.218Z,15.47
2022-11-27T08:22:39.098Z,16.33
2022-11-27T08:25:08.546Z,15.57
2022-11-27T08:27:37.323Z,13.93
2022-11-27T08:30:07.202Z,16.13
2022-11-27T08:32:40.334Z,14.77
2022-11-27T08:35:09.182Z,12.33
2022-11-27T08:37:38.137Z,16.70
2022-11-27T08:40:08.710Z,13.40
2022-11-27T08:42:38.053Z,13.07
2022-11-27T08:45:08.554Z,15.13
2022-11-27T08:47:40.033Z,17.60
2022-11-27T08:50:11.419Z,24.70
2022-11-27T08:52:41.433Z,21.33
2022-11-27T08:55:10.749Z,17.10
2022-11-27T08:57:39.346Z,16.03
2022-11-27T09:00:09.261Z,13.73
2022-11-27T09:02:39.290Z,14.73
2022-11-27T09:05:08.599Z,13.67
2022-11-27T09:07:37.301Z,12.40
2022-11-27T09:10:06.988Z,11.90
2022-11-27T09:12:38.204Z,15.77
2022-11-27T09:15:11.448Z,12.17
2022-11-27T09:17:41.456Z,15.37
2022-11-27T09:20:11.095Z,14.67
2022-11-27T09:22:39.676Z,14.40
2022-11-27T09:25:09.657Z,14.30
2022-11-27T09:27:39.112Z,12.07
2022-11-27T09:30:09.778Z,11.83
2022-11-27T09:32:38.427Z,12.50
2022-11-27T09:35:09.224Z,12.90
2022-11-27T09:37:38.103Z,10.37
2022-11-27T09:40:08.138Z,11.07
2022-11-27T09:42:41.757Z,10.63
2022-11-27T09:45:16.276Z,11.93
2022-11-27T09:47:49.988Z,10.50
2022-11-27T09:50:24.848Z,20.20
2022-11-27T09:52:57.719Z,11.30
2022-11-27T09:55:32.676Z,9.73
2022-11-27T09:58:06.767Z,11.33
2022-11-27T10:00:35.693Z,11.47
2022-11-27T10:03:04.479Z,12.07
2022-11-27T10:05:43.319Z,11.30
2022-11-27T10:08:27.550Z,11.40
2022-11-27T10:11:11.819Z,12.40
2022-11-27T10:13:58.233Z,15.33
2022-11-27T10:16:33.508Z,15.03
2022-11-27T10:19:09.808Z,18.80
2022-11-27T10:21:45.704Z,17.77
2022-11-27T10:24:21.543Z,14.90
2022-11-27T10:26:53.902Z,15.07
2022-11-27T10:29:34.644Z,15.90
2022-11-27T10:32:07.614Z,15.10
2022-11-27T10:34:41.626Z,14.40
2022-11-27T10:37:18.714Z,15.20
2022-11-27T10:39:50.804Z,15.70
2022-11-27T10:42:26.110Z,16.63
2022-11-27T10:45:00.710Z,15.53
2022-11-27T10:47:33.689Z,15.57
2022-11-27T10:50:03.240Z,14.60
2022-11-27T10:52:34.534Z,16.03
2022-11-27T10:55:11.465Z,16.60
2022-11-27T10:57:59.814Z,17.00
2022-11-27T11:00:28.858Z,16.03
2022-11-27T11:03:05.218Z,16.37
2022-11-27T11:05:51.028Z,16.60
2022-11-27T11:08:26.480Z,15.93
2022-11-27T11:11:00.834Z,17.27
2022-11-27T11:13:30.417Z,17.60
2022-11-27T11:16:01.898Z,16.70
2022-11-27T11:18:32.492Z,15.90
2022-11-27T11:21:03.157Z,18.53
2022-11-27T11:23:35.850Z,20.80
2022-11-27T11:26:14.516Z,17.93
2022-11-27T11:28:50.951Z,14.93
2022-11-27T11:31:22.995Z,17.60
2022-11-27T11:33:55.225Z,16.97
2022-11-27T11:36:24.034Z,14.80
2022-11-27T11:38:54.746Z,14.77
2022-11-27T11:41:24.279Z,15.37
2022-11-27T11:43:58.363Z,14.47
2022-11-27T11:46:29.851Z,14.10
2022-11-27T11:49:01.839Z,14.00
2022-11-27T11:51:56.415Z,13.23
2022-11-27T11:54:44.694Z,15.47
2022-11-27T11:57:36.022Z,14.03
2022-11-27T12:00:10.847Z,14.60
2022-11-27T12:02:56.527Z,13.60
2022-11-27T12:05:33.012Z,13.33
2022-11-27T12:08:23.369Z,13.33
2022-11-27T12:11:03.643Z,13.13
2022-11-27T12:13:46.749Z,12.30
2022-11-27T12:16:24.933Z,12.83
2022-11-27T12:19:12.061Z,15.10
2022-11-27T12:21:50.245Z,14.17
2022-11-27T12:24:32.341Z,14.00
2022-11-27T12:27:16.148Z,12.43
2022-11-27T12:30:06.487Z,12.90
2022-11-27T12:32:59.525Z,10.53
2022-11-27T12:35:34.656Z,11.90
2022-11-27T12:38:25.327Z,11.63
2022-11-27T12:41:08.028Z,11.90
2022-11-27T12:43:43.682Z,11.20
2022-11-27T12:46:17.222Z,11.70
2022-11-27T12:48:51.037Z,9.60
2022-11-27T12:51:25.403Z,10.67
2022-11-27T12:54:16.262Z,8.60
2022-11-27T12:56:52.257Z,6.60
2022-11-27T12:59:37.441Z,6.77
2022-11-27T13:02:53.689Z,6.20
2022-11-27T13:05:36.082Z,6.00
2022-11-27T13:08:26.692Z,6.53
2022-11-27T13:11:15.265Z,5.70
2022-11-27T13:13:53.395Z,5.50
2022-11-27T13:16:27.866Z,38.17
2022-11-27T13:19:19.059Z,5.83
2022-11-27T13:21:56.542Z,5.67
2022-11-27T13:24:41.383Z,6.03
2022-11-27T13:27:20.184Z,5.00
2022-11-27T13:30:08.599Z,5.80
2022-11-27T13:33:03.562Z,5.57
2022-11-27T13:35:53.143Z,5.30
2022-11-27T13:38:29.892Z,4.33
2022-11-27T13:48:12.932Z,5.10
2022-11-27T13:51:27.823Z,5.27
2022-11-27T13:54:27.628Z,5.10
2022-11-27T13:58:02.853Z,5.50
2022-11-27T14:00:49.111Z,5.70
2022-11-27T14:03:40.111Z,6.20
2022-11-27T14:06:35.065Z,6.07
2022-11-27T14:09:07.308Z,6.23
2022-11-27T14:11:40.337Z,5.20
2022-11-27T14:14:19.642Z,6.40
2022-11-27T14:16:59.512Z,6.50
2022-11-27T14:19:35.089Z,5.73
2022-11-27T14:22:15.004Z,5.67
2022-11-27T14:24:46.684Z,7.27
2022-11-27T14:27:21.416Z,6.13
2022-11-27T14:29:50.962Z,6.63
2022-11-27T14:32:21.377Z,6.53
2022-11-27T14:34:50.620Z,7.43
2022-11-27T14:37:24.970Z,9.10
2022-11-27T14:39:55.611Z,7.00
2022-11-27T14:42:29.103Z,9.47
2022-11-27T14:45:06.893Z,9.63
2022-11-27T14:47:36.551Z,11.53
2022-11-27T14:50:07.398Z,9.80
2022-11-27T14:52:36.193Z,8.13
2022-11-27T14:55:09.575Z,8.20
2022-11-27T14:57:38.250Z,6.43
2022-11-27T15:00:18.429Z,7.87
2022-11-27T15:02:47.685Z,7.70
2022-11-27T15:05:21.956Z,6.57
2022-11-27T15:07:53.778Z,7.37
2022-11-27T15:10:33.351Z,6.73
2022-11-27T15:13:03.852Z,6.47
2022-11-27T15:15:37.960Z,7.07
2022-11-27T15:18:09.510Z,6.20
2022-11-27T15:20:42.296Z,6.50
2022-11-27T15:23:18.690Z,7.10
2022-11-27T15:25:51.313Z,8.40
2022-11-27T15:28:34.990Z,6.43
2022-11-27T15:31:05.370Z,6.30
2022-11-27T15:33:35.166Z,6.37
2022-11-27T15:36:22.466Z,7.33
2022-11-27T15:38:54.085Z,8.00
2022-11-27T15:41:28.905Z,8.83
2022-11-27T15:43:57.816Z,8.37
2022-11-27T15:46:31.173Z,7.47
2022-11-27T15:49:00.467Z,9.00
2022-11-27T15:51:30.197Z,8.97
2022-11-27T15:53:58.868Z,10.10
2022-11-27T15:56:28.980Z,10.07
2022-11-27T15:58:57.677Z,11.47
2022-11-27T16:01:26.355Z,10.90
2022-11-27T16:03:55.786Z,9.30
2022-11-27T16:06:24.778Z,8.40
2022-11-27T16:08:56.210Z,8.00
2022-11-27T16:11:25.894Z,7.63
2022-11-27T16:13:55.936Z,8.83
2022-11-27T16:16:25.597Z,7.37
2022-11-27T16:18:57.038Z,7.90
2022-11-27T16:21:29.641Z,8.60
2022-11-27T16:24:00.172Z,8.23
2022-11-27T16:26:30.008Z,8.27
2022-11-27T16:29:00.297Z,8.07
2022-11-27T16:31:29.462Z,9.07
2022-11-27T16:33:58.189Z,8.90
2022-11-27T16:36:26.813Z,9.90
2022-11-27T16:38:56.117Z,12.07
2022-11-27T16:41:25.351Z,13.23
2022-11-27T16:43:55.839Z,11.20
2022-11-27T16:46:27.538Z,12.50
2022-11-27T16:48:57.050Z,11.70
2022-11-27T16:51:28.360Z,12.23
2022-11-27T16:53:59.049Z,11.70
2022-11-27T16:56:29.977Z,11.50
2022-11-27T16:59:03.054Z,11.70
2022-11-27T17:01:36.071Z,15.30
2022-11-27T17:04:08.811Z,11.50
2022-11-27T17:06:39.180Z,13.10
2022-11-27T17:09:09.104Z,12.47
2022-11-27T17:11:41.803Z,12.60
2022-11-27T17:14:11.582Z,11.30
2022-11-27T17:16:43.126Z,12.33
2022-11-27T17:19:14.154Z,12.30
2022-11-27T17:21:43.168Z,10.97
2022-11-27T17:24:15.449Z,11.60
2022-11-27T17:26:45.995Z,11.60
2022-11-27T17:29:15.950Z,10.70
2022-11-27T17:31:46.096Z,10.37
2022-11-27T17:34:16.735Z,14.60
2022-11-27T17:36:46.136Z,12.70
2022-11-27T17:39:16.113Z,13.40
2022-11-27T17:41:45.717Z,12.43
2022-11-27T17:44:14.947Z,12.27
2022-11-27T17:46:49.926Z,12.87
2022-11-27T17:49:19.400Z,13.10
2022-11-27T17:51:48.043Z,13.10
2022-11-27T17:54:16.639Z,12.80
2022-11-27T17:56:51.087Z,12.73
2022-11-27T17:59:19.782Z,13.10
2022-11-27T18:01:53.294Z,12.60
2022-11-27T18:04:22.142Z,14.70
2022-11-27T18:06:50.907Z,14.90
2022-11-27T18:09:19.840Z,14.80
2022-11-27T18:11:48.530Z,14.97
2022-11-27T18:14:17.481Z,14.40
2022-11-27T18:16:46.190Z,13.50
2022-11-27T18:19:16.476Z,13.83
2022-11-27T18:21:45.099Z,12.97
2022-11-27T18:24:29.198Z,15.40
2022-11-27T18:27:13.278Z,16.33
2022-11-27T18:29:44.643Z,17.40
2022-11-27T18:32:15.383Z,16.10
2022-11-27T18:34:45.866Z,23.40
2022-11-27T18:37:14.938Z,28.27
2022-11-27T18:39:45.432Z,23.67
2022-11-27T18:42:14.504Z,21.23
2022-11-27T18:44:45.108Z,21.20
2022-11-27T18:47:14.658Z,19.63
2022-11-27T18:49:45.185Z,20.00
2022-11-27T18:52:13.985Z,17.33
2022-11-27T18:54:42.675Z,17.63
2022-11-27T18:57:11.518Z,17.63
2022-11-27T18:59:41.008Z,17.23
2022-11-27T19:02:10.984Z,18.00
2022-11-27T19:04:40.070Z,18.63
2022-11-27T19:07:10.337Z,19.17
2022-11-27T19:09:39.568Z,16.47
2022-11-27T19:12:08.505Z,16.20
2022-11-27T19:14:37.266Z,16.17
2022-11-27T19:17:05.941Z,16.73
2022-11-27T19:22:25.753Z,17.97
2022-11-27T19:24:54.396Z,15.97
2022-11-27T19:27:23.071Z,18.90
2022-11-27T19:29:51.730Z,17.17
2022-11-27T19:32:20.418Z,21.60
2022-11-27T19:34:51.407Z,20.73
2022-11-27T19:37:33.600Z,17.67
2022-11-27T19:40:06.537Z,18.77
2022-11-27T19:42:35.469Z,16.70
2022-11-27T19:45:04.441Z,16.13
2022-11-27T19:47:33.112Z,16.40
2022-11-27T19:50:01.869Z,15.20
2022-11-27T19:52:30.525Z,16.57
2022-11-27T19:54:59.180Z,17.57
2022-11-27T19:57:29.583Z,16.30
2022-11-27T19:59:58.406Z,17.27
2022-11-27T20:02:27.366Z,17.10
2022-11-27T20:04:56.084Z,18.67
2022-11-27T20:07:24.865Z,16.40
2022-11-27T20:09:53.667Z,17.10
2022-11-27T20:12:22.366Z,16.40
2022-11-27T20:14:52.380Z,15.70
2022-11-27T20:17:21.062Z,15.03
2022-11-27T20:19:49.690Z,14.97
2022-11-27T20:22:18.626Z,14.37
2022-11-27T20:25:11.179Z,19.63
2022-11-27T20:27:36.058Z,21.17
2022-11-27T20:30:07.164Z,17.50
2022-11-27T20:32:35.837Z,16.00
2022-11-27T20:35:04.611Z,16.83
2022-11-27T20:37:34.041Z,15.87
2022-11-27T20:40:02.772Z,17.13
2022-11-27T20:42:31.440Z,15.93
2022-11-27T20:45:04.706Z,17.33
2022-11-27T20:47:35.755Z,19.50
2022-11-27T20:50:04.599Z,16.97
2022-11-27T20:52:33.272Z,18.73
2022-11-27T20:55:01.960Z,16.47
2022-11-27T20:57:30.641Z,19.00
2022-11-27T20:59:59.271Z,19.77
2022-11-27T21:02:28.254Z,19.30
2022-11-27T21:04:58.429Z,21.47
2022-11-27T21:07:27.194Z,18.37
2022-11-27T21:09:56.374Z,17.20
2022-11-27T21:12:25.034Z,19.53
2022-11-27T21:14:53.714Z,17.67
2022-11-27T21:17:22.390Z,19.30
2022-11-27T21:19:51.057Z,18.90
2022-11-27T21:22:21.378Z,19.40
2022-11-27T21:24:51.881Z,18.83
2022-11-27T21:27:20.568Z,17.70
2022-11-27T21:29:49.245Z,22.03
2022-11-27T21:32:18.288Z,21.93
2022-11-27T21:34:47.174Z,19.57
2022-11-27T21:37:16.231Z,20.43
2022-11-27T21:39:46.299Z,18.83
2022-11-27T21:42:14.924Z,22.33
2022-11-27T21:44:43.728Z,21.63
2022-11-27T21:47:12.694Z,23.77
2022-11-27T21:49:41.769Z,23.53
2022-11-27T21:52:10.477Z,25.30
2022-11-27T21:54:39.437Z,27.50
2022-11-27T21:57:09.601Z,26.60
2022-11-27T21:59:38.344Z,23.13
2022-11-27T22:02:07.565Z,26.40
2022-11-27T22:04:36.364Z,24.10
2022-11-27T22:07:05.061Z,23.73
2022-11-27T22:09:34.387Z,24.17
2022-11-27T22:12:03.090Z,23.73
2022-11-27T22:14:33.666Z,24.10
2022-11-27T22:17:02.437Z,22.03
2022-11-27T22:19:31.087Z,21.80
2022-11-27T22:21:59.785Z,26.70
2022-11-27T22:24:28.468Z,24.17
2022-11-27T22:26:57.090Z,25.67
2022-11-27T22:29:25.979Z,26.30
2022-11-27T22:31:56.222Z,25.40
2022-11-27T22:34:24.860Z,27.57
2022-11-27T22:36:56.143Z,31.27
2022-11-27T22:39:24.816Z,25.47
2022-11-27T22:41:53.448Z,26.60
2022-11-27T22:44:22.175Z,22.90
2022-11-27T22:46:50.935Z,25.27
2022-11-27T22:49:21.093Z,25.97
2022-11-27T22:51:49.754Z,22.80
2022-11-27T22:54:18.850Z,26.80
2022-11-27T22:56:47.992Z,24.17
2022-11-27T22:59:34.119Z,23.20
2022-11-27T23:02:03.637Z,21.23
2022-11-27T23:04:34.186Z,26.33
2022-11-27T23:07:02.864Z,23.40
2022-11-27T23:09:31.719Z,25.20
2022-11-27T23:12:00.816Z,25.17
2022-11-27T23:14:29.491Z,27.17
2022-11-27T23:16:58.387Z,26.40
2022-11-27T23:19:27.134Z,24.50
2022-11-27T23:21:57.254Z,25.00
2022-11-27T23:24:25.943Z,25.60
2022-11-27T23:26:54.613Z,21.97
2022-11-27T23:29:23.280Z,22.97
2022-11-27T23:31:55.262Z,25.00
2022-11-27T23:34:24.067Z,22.30
2022-11-27T23:36:52.844Z,21.67
2022-11-27T23:39:22.878Z,22.60
2022-11-27T23:41:51.536Z,23.07
2022-11-27T23:44:20.870Z,25.30
2022-11-27T23:46:49.540Z,21.53
2022-11-27T23:49:18.742Z,21.87
2022-11-27T23:51:48.116Z,22.73
2022-11-27T23:54:17.911Z,20.17
2022-11-27T23:56:51.610Z,22.17
2022-11-27T23:59:20.432Z,19.33
